createdAt,value
2023-01-08T00:01:16.737Z,98173.19
2023-01-08T00:03:43.787Z,98176.88
2023-01-08T00:06:16.747Z,98177.16
2023-01-08T00:08:43.914Z,98179.88
2023-01-08T00:11:11.327Z,98179.59
2023-01-08T00:13:38.049Z,98173.19
2023-01-08T00:16:07.983Z,98173.88
2023-01-08T00:18:34.876Z,98166.44
2023-01-08T00:21:02.540Z,98171.91
2023-01-08T00:23:29.514Z,98153.09
2023-01-08T00:25:56.348Z,98142.91
2023-01-08T00:28:23.504Z,98144.22
2023-01-08T00:30:50.617Z,98140.41
2023-01-08T00:33:17.750Z,98124.50
2023-01-08T00:35:44.548Z,98124.31
2023-01-08T00:38:11.580Z,98128.38
2023-01-08T00:40:40.394Z,98131.00
2023-01-08T00:43:07.868Z,98127.69
2023-01-08T00:45:34.766Z,98124.22
2023-01-08T00:48:01.558Z,98114.28
2023-01-08T00:50:28.437Z,98104.09
2023-01-08T00:52:55.222Z,98103.69
2023-01-08T00:55:22.045Z,98099.28
2023-01-08T00:57:48.817Z,98102.28
2023-01-08T01:00:16.394Z,98101.16
2023-01-08T01:02:44.186Z,98096.88
2023-01-08T01:05:15.240Z,98092.78
2023-01-08T01:07:43.106Z,98099.28
2023-01-08T01:10:11.806Z,98093.66
2023-01-08T01:12:39.004Z,98085.16
2023-01-08T01:15:08.285Z,98078.75
2023-01-08T01:17:35.673Z,98071.47
2023-01-08T01:20:02.345Z,98081.88
2023-01-08T01:22:29.083Z,98086.66
2023-01-08T01:24:55.908Z,98087.16
2023-01-08T01:27:22.777Z,98097.09
2023-01-08T01:29:49.606Z,98087.91
2023-01-08T01:32:16.365Z,98102.69
2023-01-08T01:34:43.357Z,98092.69
2023-01-08T01:37:13.245Z,98096.69
2023-01-08T01:39:40.891Z,98079.97
2023-01-08T01:42:32.512Z,98086.47
2023-01-08T01:44:59.528Z,98083.88
2023-01-08T01:47:34.593Z,98091.38
2023-01-08T01:50:16.152Z,98074.50
2023-01-08T01:52:54.485Z,98076.41
2023-01-08T01:55:21.509Z,98084.00
2023-01-08T01:57:53.168Z,98068.78
2023-01-08T02:00:20.641Z,98081.28
2023-01-08T02:02:47.340Z,98069.88
2023-01-08T02:05:14.165Z,98072.88
2023-01-08T02:08:04.985Z,98063.97
2023-01-08T02:10:51.535Z,98069.00
2023-01-08T02:13:24.823Z,98063.28
2023-01-08T02:16:12.992Z,98056.78
2023-01-08T02:18:55.102Z,98058.88
2023-01-08T02:21:48.110Z,98049.09
2023-01-08T02:24:33.425Z,98027.91
2023-01-08T02:27:01.509Z,98041.78
2023-01-08T02:29:29.984Z,98054.19
2023-01-08T02:31:56.733Z,98047.19
2023-01-08T02:34:23.422Z,98056.13
2023-01-08T02:36:54.383Z,98047.69
2023-01-08T02:39:33.162Z,98035.72
2023-01-08T02:42:09.086Z,98044.50
2023-01-08T02:44:56.692Z,98031.91
2023-01-08T02:47:32.847Z,98034.00
2023-01-08T02:50:10.893Z,98027.91
2023-01-08T02:52:46.616Z,98027.50
2023-01-08T02:55:15.743Z,98023.41
2023-01-08T02:57:42.666Z,98010.09
2023-01-08T03:00:10.337Z,98011.41
2023-01-08T03:02:39.892Z,98001.72
2023-01-08T03:05:20.697Z,97993.91
2023-01-08T03:07:47.764Z,97996.00
2023-01-08T03:10:14.559Z,97992.41
2023-01-08T03:12:48.688Z,97987.78
2023-01-08T03:15:22.938Z,97988.00
2023-01-08T03:17:54.932Z,97987.69
2023-01-08T03:20:24.893Z,97981.88
2023-01-08T03:22:55.790Z,97977.75
2023-01-08T03:25:25.991Z,97976.84
2023-01-08T03:27:57.882Z,97973.13
2023-01-08T03:30:25.585Z,97960.78
2023-01-08T03:32:55.397Z,97978.53
2023-01-08T03:35:24.514Z,97973.78
2023-01-08T03:37:57.538Z,97959.66
2023-01-08T03:40:28.987Z,97963.94
2023-01-08T03:42:57.781Z,97969.69
2023-01-08T03:45:26.816Z,97968.25
2023-01-08T03:47:54.707Z,97970.16
2023-01-08T03:50:24.692Z,97960.47
2023-01-08T03:52:51.447Z,97956.94
2023-01-08T03:55:18.449Z,97960.75
2023-01-08T03:57:45.229Z,97956.16
2023-01-08T04:00:12.544Z,97963.78
2023-01-08T04:02:39.385Z,97961.56
2023-01-08T04:05:06.682Z,97948.84
2023-01-08T04:07:33.398Z,97953.88
2023-01-08T04:10:01.721Z,97952.06
2023-01-08T04:12:28.407Z,97953.97
2023-01-08T04:14:55.082Z,97960.38
2023-01-08T04:17:21.778Z,97955.97
2023-01-08T04:19:48.516Z,97959.34
2023-01-08T04:22:15.262Z,97965.25
2023-01-08T04:24:41.987Z,97966.34
2023-01-08T04:27:08.799Z,97968.78
2023-01-08T04:29:35.731Z,97975.56
2023-01-08T04:32:02.494Z,97973.16
2023-01-08T04:34:29.223Z,97974.28
2023-01-08T04:36:56.157Z,97969.47
2023-01-08T04:39:22.839Z,97974.59
2023-01-08T04:41:49.525Z,97975.09
2023-01-08T04:44:16.279Z,97974.59
2023-01-08T04:46:43.077Z,97970.28
2023-01-08T04:49:11.409Z,97975.38
2023-01-08T04:51:38.465Z,97968.69
2023-01-08T04:54:05.246Z,97974.38
2023-01-08T04:56:31.985Z,97978.19
2023-01-08T04:58:59.370Z,97981.31
2023-01-08T05:01:27.589Z,97979.22
2023-01-08T05:03:56.459Z,97980.31
2023-01-08T05:06:24.028Z,97982.03
2023-01-08T05:08:50.843Z,97984.41
2023-01-08T05:11:17.702Z,97979.13
2023-01-08T05:13:48.448Z,97972.13
2023-01-08T05:16:15.860Z,97971.94
2023-01-08T05:18:44.145Z,97974.44
2023-01-08T05:21:11.324Z,97973.28
2023-01-08T05:23:38.089Z,97965.28
2023-01-08T05:26:06.792Z,97965.28
2023-01-08T05:28:34.323Z,97965.28
2023-01-08T05:31:01.151Z,97962.09
2023-01-08T05:33:27.967Z,97967.78
2023-01-08T05:35:54.793Z,97965.78
2023-01-08T05:38:21.623Z,97967.28
2023-01-08T05:40:48.309Z,97964.91
2023-01-08T05:43:15.053Z,97965.19
2023-01-08T05:45:41.725Z,97968.72
2023-01-08T05:48:08.632Z,97969.50
2023-01-08T05:50:35.970Z,97952.50
2023-01-08T05:53:07.415Z,97960.13
2023-01-08T05:55:35.104Z,97956.09
2023-01-08T05:58:05.696Z,97957.81
2023-01-08T06:00:34.032Z,97952.91
2023-01-08T06:03:00.940Z,97948.59
2023-01-08T06:05:27.724Z,97947.00
2023-01-08T06:07:54.499Z,97941.31
2023-01-08T06:10:21.280Z,97945.81
2023-01-08T06:12:48.108Z,97939.78
2023-01-08T06:15:14.851Z,97934.00
2023-01-08T06:17:41.614Z,97934.28
2023-01-08T06:20:09.374Z,97934.22
2023-01-08T06:22:36.173Z,97941.69
2023-01-08T06:25:03.583Z,97935.31
2023-01-08T06:27:30.343Z,97929.91
2023-01-08T06:29:57.177Z,97934.28
2023-01-08T06:32:23.883Z,97934.81
2023-01-08T06:34:50.598Z,97927.50
2023-01-08T06:37:17.352Z,97929.31
2023-01-08T06:39:44.038Z,97917.88
2023-01-08T06:42:10.828Z,97918.88
2023-01-08T06:44:37.568Z,97918.88
2023-01-08T06:47:04.380Z,97931.94
2023-01-08T06:49:31.135Z,97934.66
2023-01-08T06:51:57.912Z,97933.53
2023-01-08T06:54:24.682Z,97933.25
2023-01-08T06:56:54.041Z,97922.44
2023-01-08T06:59:21.777Z,97916.44
2023-01-08T07:01:48.880Z,97915.81
2023-01-08T07:04:15.835Z,97919.63
2023-01-08T07:06:42.791Z,97914.84
2023-01-08T07:09:13.184Z,97924.84
2023-01-08T07:11:40.998Z,97930.22
2023-01-08T07:14:08.087Z,97928.97
2023-01-08T07:16:35.520Z,97925.75
2023-01-08T07:19:02.295Z,97933.88
2023-01-08T07:21:29.236Z,97927.75
2023-01-08T07:23:55.996Z,97932.38
2023-01-08T07:26:22.888Z,97934.09
2023-01-08T07:28:49.560Z,97938.88
2023-01-08T07:31:16.350Z,97937.41
2023-01-08T07:33:43.236Z,97938.19
2023-01-08T07:36:09.913Z,97940.88
2023-01-08T07:38:36.656Z,97936.78
2023-01-08T07:41:04.468Z,97940.72
2023-01-08T07:43:31.475Z,97935.31
2023-01-08T07:45:59.474Z,97932.28
2023-01-08T07:48:27.135Z,97942.47
2023-01-08T07:50:54.510Z,97938.50
2023-01-08T07:53:21.469Z,97935.69
2023-01-08T07:55:48.195Z,97930.59
2023-01-08T07:58:15.124Z,97936.28
2023-01-08T08:00:42.055Z,97934.88
2023-01-08T08:03:11.808Z,97937.28
2023-01-08T08:05:38.753Z,97925.66
2023-01-08T08:08:10.592Z,97931.56
2023-01-08T08:10:38.921Z,97928.38
2023-01-08T08:13:06.000Z,97920.47
2023-01-08T08:15:34.240Z,97923.06
2023-01-08T08:18:01.393Z,97915.44
2023-01-08T08:20:28.519Z,97920.72
2023-01-08T08:23:09.921Z,97915.00
2023-01-08T08:25:37.407Z,97916.63
2023-01-08T08:28:04.985Z,97908.81
2023-01-08T08:30:33.911Z,97910.59
2023-01-08T08:33:03.992Z,97909.50
2023-01-08T08:35:32.172Z,97902.38
2023-01-08T08:37:58.907Z,97908.59
2023-01-08T08:40:26.400Z,97916.06
2023-01-08T08:43:01.959Z,97918.94
2023-01-08T08:45:29.233Z,97912.16
2023-01-08T08:47:56.200Z,97912.94
2023-01-08T08:50:23.471Z,97910.06
2023-01-08T08:52:50.311Z,97915.97
2023-01-08T08:55:17.479Z,97909.44
2023-01-08T08:57:46.369Z,97903.72
2023-01-08T09:00:14.555Z,97901.50
2023-01-08T09:02:41.468Z,97902.84
2023-01-08T09:05:08.364Z,97907.72
2023-01-08T09:07:35.116Z,97909.31
2023-01-08T09:10:02.548Z,97917.13
2023-01-08T09:12:29.414Z,97912.72
2023-01-08T09:14:57.119Z,97904.31
2023-01-08T09:17:25.918Z,97908.50
2023-01-08T09:19:53.154Z,97913.78
2023-01-08T09:22:20.807Z,97918.88
2023-01-08T09:24:50.643Z,97911.69
2023-01-08T09:27:17.396Z,97913.28
2023-01-08T09:29:44.198Z,97915.69
2023-01-08T09:32:11.337Z,97922.19
2023-01-08T09:34:38.268Z,97926.78
2023-01-08T09:37:06.002Z,97925.41
2023-01-08T09:39:33.887Z,97921.88
2023-01-08T09:42:06.182Z,97931.41
2023-01-08T09:44:43.069Z,97933.78
2023-01-08T09:47:32.606Z,97927.28
2023-01-08T09:50:02.980Z,97928.09
2023-01-08T09:52:31.487Z,97926.19
2023-01-08T09:54:59.972Z,97933.38
2023-01-08T09:57:28.870Z,97937.84
2023-01-08T09:59:56.002Z,97942.16
2023-01-08T10:02:25.139Z,97950.59
2023-01-08T10:05:00.133Z,97947.25
2023-01-08T10:07:30.497Z,97931.81
2023-01-08T10:09:57.364Z,97933.41
2023-01-08T10:12:28.634Z,97924.03
2023-01-08T10:15:05.840Z,97931.47
2023-01-08T10:17:39.653Z,97920.47
2023-01-08T10:20:21.254Z,97921.13
2023-01-08T10:22:49.598Z,97913.72
2023-01-08T10:25:19.759Z,97901.47
2023-01-08T10:27:57.552Z,97896.53
2023-01-08T10:30:38.234Z,97902.28
2023-01-08T10:33:17.860Z,97891.31
2023-01-08T10:35:52.771Z,97903.59
2023-01-08T10:38:36.037Z,97892.94
2023-01-08T10:41:11.699Z,97896.94
2023-01-08T10:43:54.024Z,97891.06
2023-01-08T10:46:32.132Z,97889.94
2023-01-08T10:49:02.607Z,97893.13
2023-01-08T10:51:33.754Z,97888.03
2023-01-08T10:54:21.144Z,97891.06
2023-01-08T10:56:48.139Z,97893.91
2023-01-08T10:59:23.734Z,97884.22
2023-01-08T11:01:55.834Z,97889.63
2023-01-08T11:04:32.538Z,97888.03
2023-01-08T11:07:04.975Z,97874.97
2023-01-08T11:09:42.184Z,97864.06
2023-01-08T11:12:36.436Z,97863.63
2023-01-08T11:15:26.948Z,97852.66
2023-01-08T11:18:24.721Z,97841.03
2023-01-08T11:20:52.881Z,97840.22
2023-01-08T11:23:28.987Z,97836.69
2023-01-08T11:26:07.837Z,97827.47
2023-01-08T11:29:14.676Z,97835.28
2023-01-08T11:31:55.717Z,97839.72
2023-01-08T11:34:34.635Z,97830.50
2023-01-08T11:37:42.817Z,97817.94
2023-01-08T11:40:28.960Z,97815.41
2023-01-08T11:43:25.691Z,97800.16
2023-01-08T11:46:20.323Z,97788.69
2023-01-08T11:48:56.648Z,97787.91
2023-01-08T11:52:12.631Z,97780.09
2023-01-08T11:55:04.259Z,97760.97
2023-01-08T11:57:59.127Z,97753.00
2023-01-08T12:00:38.213Z,97756.69
2023-01-08T12:03:44.220Z,97750.28
2023-01-08T12:06:40.664Z,97741.22
2023-01-08T12:09:25.123Z,97745.19
2023-01-08T12:12:07.973Z,97745.03
2023-01-08T12:14:58.147Z,97742.50
2023-01-08T12:17:40.253Z,97733.56
2023-01-08T12:20:25.113Z,97735.16
2023-01-08T12:23:18.911Z,97733.88
2023-01-08T12:26:19.493Z,97736.41
2023-01-08T12:29:31.601Z,97736.56
2023-01-08T12:32:26.522Z,97735.13
2023-01-08T12:35:07.802Z,97740.34
2023-01-08T12:37:57.712Z,97737.00
2023-01-08T12:40:33.322Z,97740.53
2023-01-08T12:43:05.894Z,97742.75
2023-01-08T12:45:40.116Z,97735.75
2023-01-08T12:48:09.249Z,97740.34
2023-01-08T12:50:44.939Z,97739.56
2023-01-08T12:53:26.756Z,97738.78
2023-01-08T12:56:08.105Z,97725.69
2023-01-08T12:58:43.003Z,97727.75
2023-01-08T13:01:40.602Z,97725.69
2023-01-08T13:04:11.386Z,97722.47
2023-01-08T13:06:51.945Z,97710.34
2023-01-08T13:09:24.539Z,97694.34
2023-01-08T13:11:53.905Z,97696.88
2023-01-08T13:14:22.276Z,97693.56
2023-01-08T13:17:21.811Z,97701.53
2023-01-08T13:19:55.833Z,97696.56
2023-01-08T13:22:31.661Z,97687.09
2023-01-08T13:25:11.719Z,97683.63
2023-01-08T13:27:38.550Z,97685.28
2023-01-08T13:30:46.256Z,97677.06
2023-01-08T13:33:43.236Z,97666.22
2023-01-08T13:36:12.992Z,97660.25
2023-01-08T13:38:41.196Z,97654.88
2023-01-08T13:41:38.783Z,97656.06
2023-01-08T13:44:17.489Z,97649.66
2023-01-08T13:46:54.237Z,97657.69
2023-01-08T13:49:43.612Z,97647.16
2023-01-08T13:52:43.610Z,97646.69
2023-01-08T13:55:19.806Z,97638.06
2023-01-08T13:57:52.346Z,97650.50
2023-01-08T14:00:24.543Z,97643.31
2023-01-08T14:02:54.821Z,97642.34
2023-01-08T14:05:29.498Z,97634.38
2023-01-08T14:08:04.647Z,97637.66
2023-01-08T14:10:37.431Z,97629.06
2023-01-08T14:13:09.100Z,97619.69
2023-01-08T14:15:38.410Z,97625.63
2023-01-08T14:18:06.009Z,97623.88
2023-01-08T14:20:39.407Z,97619.91
2023-01-08T14:23:19.786Z,97619.25
2023-01-08T14:25:50.834Z,97623.56
2023-01-08T14:28:24.241Z,97615.41
2023-01-08T14:30:55.671Z,97612.38
2023-01-08T14:33:37.946Z,97617.78
2023-01-08T14:36:11.783Z,97623.41
2023-01-08T14:38:54.894Z,97622.28
2023-01-08T14:41:55.583Z,97617.19
2023-01-08T14:44:36.309Z,97609.72
2023-01-08T14:47:16.935Z,97601.91
2023-01-08T14:49:46.705Z,97594.47
2023-01-08T14:52:15.042Z,97610.56
2023-01-08T14:55:03.252Z,97597.81
2023-01-08T14:57:31.624Z,97595.63
2023-01-08T15:00:01.378Z,97589.91
2023-01-08T15:02:32.614Z,97586.16
2023-01-08T15:05:18.885Z,97591.75
2023-01-08T15:08:06.666Z,97581.88
2023-01-08T15:10:38.350Z,97589.53
2023-01-08T15:13:07.602Z,97587.16
2023-01-08T15:15:40.822Z,97583.94
2023-01-08T15:18:16.148Z,97580.16
2023-01-08T15:20:44.645Z,97580.47
2023-01-08T15:23:40.893Z,97573.81
2023-01-08T15:26:15.646Z,97579.88
2023-01-08T15:28:56.176Z,97569.81
2023-01-08T15:31:29.241Z,97568.56
2023-01-08T15:33:57.168Z,97567.00
2023-01-08T15:36:24.052Z,97570.47
2023-01-08T15:38:52.179Z,97568.41
2023-01-08T15:41:41.572Z,97560.28
2023-01-08T15:44:12.353Z,97561.09
2023-01-08T15:46:39.256Z,97564.13
2023-01-08T15:49:06.160Z,97559.03
2023-01-08T15:51:34.786Z,97559.69
2023-01-08T15:54:02.330Z,97554.13
2023-01-08T15:56:29.437Z,97549.81
2023-01-08T15:58:56.232Z,97547.44
2023-01-08T16:01:23.396Z,97537.28
2023-01-08T16:03:51.988Z,97539.63
2023-01-08T16:06:18.885Z,97535.69
2023-01-08T16:08:46.579Z,97529.47
2023-01-08T16:11:16.364Z,97534.75
2023-01-08T16:13:48.469Z,97536.63
2023-01-08T16:16:16.528Z,97531.56
2023-01-08T16:18:44.257Z,97534.75
2023-01-08T16:21:11.604Z,97526.47
2023-01-08T16:23:42.186Z,97521.22
2023-01-08T16:26:12.128Z,97526.63
2023-01-08T16:28:39.415Z,97523.63
2023-01-08T16:31:07.127Z,97512.78
2023-01-08T16:33:34.389Z,97505.78
2023-01-08T16:36:05.830Z,97503.88
2023-01-08T16:38:33.947Z,97504.19
2023-01-08T16:41:01.259Z,97500.22
2023-01-08T16:43:30.235Z,97497.84
2023-01-08T16:46:02.981Z,97507.56
2023-01-08T16:48:30.654Z,97499.91
2023-01-08T16:51:05.170Z,97500.22
2023-01-08T16:53:32.720Z,97500.56
2023-01-08T16:56:00.082Z,97497.69
2023-01-08T16:58:27.288Z,97488.16
2023-01-08T17:00:54.172Z,97488.16
2023-01-08T17:03:22.285Z,97486.22
2023-01-08T17:05:49.796Z,97482.38
2023-01-08T17:08:17.730Z,97465.38
2023-01-08T17:10:47.599Z,97457.25
2023-01-08T17:13:14.283Z,97449.78
2023-01-08T17:15:41.043Z,97442.78
2023-01-08T17:18:07.777Z,97433.88
2023-01-08T17:20:34.758Z,97432.63
2023-01-08T17:23:01.851Z,97425.63
2023-01-08T17:25:28.667Z,97429.09
2023-01-08T17:27:55.507Z,97423.88
2023-01-08T17:30:22.470Z,97425.28
2023-01-08T17:32:49.375Z,97415.47
2023-01-08T17:35:16.586Z,97423.88
2023-01-08T17:37:43.368Z,97416.59
2023-01-08T17:40:10.935Z,97410.38
2023-01-08T17:42:39.565Z,97419.59
2023-01-08T17:45:07.064Z,97413.25
2023-01-08T17:47:35.056Z,97408.66
2023-01-08T17:50:04.373Z,97410.06
2023-01-08T17:52:31.675Z,97403.06
2023-01-08T17:54:58.662Z,97401.03
2023-01-08T17:57:26.457Z,97415.47
2023-01-08T17:59:53.281Z,97407.84
2023-01-08T18:02:25.397Z,97409.59
2023-01-08T18:04:52.840Z,97397.19
2023-01-08T18:07:19.749Z,97399.13
2023-01-08T18:09:46.696Z,97399.44
2023-01-08T18:12:13.760Z,97389.41
2023-01-08T18:14:42.087Z,97382.44
2023-01-08T18:17:10.118Z,97377.78
2023-01-08T18:19:37.102Z,97369.69
2023-01-08T18:22:04.287Z,97352.50
2023-01-08T18:24:31.875Z,97358.41
2023-01-08T18:26:59.777Z,97353.91
2023-01-08T18:29:26.835Z,97349.31
2023-01-08T18:31:53.963Z,97353.91
2023-01-08T18:34:20.786Z,97343.09
2023-01-08T18:36:48.410Z,97343.91
2023-01-08T18:39:15.228Z,97343.91
2023-01-08T18:42:01.666Z,97342.78
2023-01-08T18:44:28.745Z,97353.59
2023-01-08T18:46:55.665Z,97343.56
2023-01-08T18:49:24.172Z,97339.28
2023-01-08T18:51:51.340Z,97335.16
2023-01-08T18:54:25.858Z,97332.75
2023-01-08T18:56:55.743Z,97324.97
2023-01-08T18:59:24.758Z,97319.88
2023-01-08T19:01:53.570Z,97326.09
2023-01-08T19:04:20.526Z,97309.72
2023-01-08T19:06:49.156Z,97301.94
2023-01-08T19:09:16.946Z,97295.41
2023-01-08T19:11:43.886Z,97304.78
2023-01-08T19:14:12.819Z,97295.72
2023-01-08T19:16:40.920Z,97287.47
2023-01-08T19:19:07.847Z,97291.44
2023-01-08T19:21:39.948Z,97286.03
2023-01-08T19:24:09.731Z,97281.75
2023-01-08T19:26:40.125Z,97279.03
2023-01-08T19:29:10.230Z,97280.63
2023-01-08T19:31:40.030Z,97272.50
2023-01-08T19:34:06.879Z,97273.63
2023-01-08T19:36:34.141Z,97261.38
2023-01-08T19:39:01.722Z,97263.28
2023-01-08T19:41:54.801Z,97264.06
2023-01-08T19:44:21.919Z,97263.63
2023-01-08T19:46:55.137Z,97264.72
2023-01-08T19:49:25.013Z,97254.69
2023-01-08T19:51:54.613Z,97250.41
2023-01-08T19:54:25.878Z,97247.69
2023-01-08T19:57:00.917Z,97250.41
2023-01-08T19:59:28.493Z,97246.78
2023-01-08T20:01:58.476Z,97252.66
2023-01-08T20:04:30.017Z,97243.59
2023-01-08T20:06:58.095Z,97243.94
2023-01-08T20:09:25.494Z,97245.25
2023-01-08T20:11:52.237Z,97242.19
2023-01-08T20:14:21.127Z,97239.69
2023-01-08T20:16:51.696Z,97238.91
2023-01-08T20:19:18.723Z,97240.34
2023-01-08T20:21:46.803Z,97231.75
2023-01-08T20:24:15.864Z,97236.03
2023-01-08T20:26:45.659Z,97225.88
2023-01-08T20:29:14.642Z,97224.50
2023-01-08T20:31:42.025Z,97215.63
2023-01-08T20:34:12.302Z,97217.41
2023-01-08T20:36:39.295Z,97214.53
2023-01-08T20:39:11.526Z,97213.09
2023-01-08T20:41:38.433Z,97212.59
2023-01-08T20:44:09.085Z,97210.06
2023-01-08T20:46:37.275Z,97207.72
2023-01-08T20:49:07.192Z,97201.34
2023-01-08T20:51:36.361Z,97194.66
2023-01-08T20:54:05.663Z,97189.72
2023-01-08T20:56:33.124Z,97183.53
2023-01-08T20:59:01.747Z,97185.31
2023-01-08T21:01:36.831Z,97180.38
2023-01-08T21:04:06.425Z,97166.69
2023-01-08T21:06:36.587Z,97179.56
2023-01-08T21:09:07.139Z,97174.50
2023-01-08T21:11:36.590Z,97165.59
2023-01-08T21:14:22.775Z,97162.09
2023-01-08T21:16:54.720Z,97142.06
2023-01-08T21:19:21.758Z,97146.38
2023-01-08T21:21:49.677Z,97146.03
2023-01-08T21:24:20.344Z,97145.44
2023-01-08T21:26:48.123Z,97150.84
2023-01-08T21:29:17.570Z,97139.88
2023-01-08T21:31:44.835Z,97140.34
2023-01-08T21:34:11.796Z,97144.78
2023-01-08T21:36:39.418Z,97139.03
2023-01-08T21:39:06.698Z,97126.00
2023-01-08T21:41:52.365Z,97111.53
2023-01-08T21:44:41.167Z,97114.56
2023-01-08T21:47:12.253Z,97101.06
2023-01-08T21:49:39.195Z,97099.16
2023-01-08T21:52:27.407Z,97100.28
2023-01-08T21:54:54.181Z,97091.69
2023-01-08T21:57:21.362Z,97088.50
2023-01-08T21:59:52.521Z,97079.94
2023-01-08T22:02:21.065Z,97076.13
2023-01-08T22:04:49.420Z,97065.31
2023-01-08T22:07:16.225Z,97066.91
2023-01-08T22:09:43.242Z,97057.97
2023-01-08T22:12:10.924Z,97057.53
2023-01-08T22:14:38.953Z,97044.34
2023-01-08T22:17:08.283Z,97044.47
2023-01-08T22:19:38.678Z,97047.97
2023-01-08T22:22:05.701Z,97045.59
2023-01-08T22:24:32.580Z,97046.06
2023-01-08T22:26:59.659Z,97038.59
2023-01-08T22:29:28.512Z,97039.25
2023-01-08T22:31:55.810Z,97041.03
2023-01-08T22:34:22.864Z,97040.91
2023-01-08T22:36:51.287Z,97049.81
2023-01-08T22:39:18.440Z,97041.69
2023-01-08T22:41:45.273Z,97029.31
2023-01-08T22:44:12.464Z,97023.13
2023-01-08T22:46:39.577Z,97034.88
2023-01-08T22:49:07.173Z,97029.00
2023-01-08T22:51:34.000Z,97034.41
2023-01-08T22:54:00.776Z,97032.47
2023-01-08T22:56:27.594Z,97032.66
2023-01-08T22:58:54.604Z,97039.34
2023-01-08T23:01:25.023Z,97045.84
2023-01-08T23:03:56.717Z,97048.56
2023-01-08T23:06:24.842Z,97049.94
2023-01-08T23:08:52.022Z,97059.19
2023-01-08T23:11:20.888Z,97056.47
2023-01-08T23:13:48.304Z,97061.88
2023-01-08T23:16:17.315Z,97066.16
2023-01-08T23:18:44.867Z,97066.16
2023-01-08T23:21:19.106Z,97072.34
2023-01-08T23:23:46.253Z,97075.84
2023-01-08T23:26:23.182Z,97078.22
2023-01-08T23:28:52.975Z,97072.69
2023-01-08T23:31:28.955Z,97066.34
2023-01-08T23:33:56.770Z,97066.19
2023-01-08T23:36:25.183Z,97054.47
2023-01-08T23:38:53.935Z,97051.63
2023-01-08T23:41:23.196Z,97055.47
2023-01-08T23:43:50.174Z,97058.00
2023-01-08T23:46:19.309Z,97055.78
2023-01-08T23:48:45.999Z,97052.13
2023-01-08T23:51:12.938Z,97047.06
2023-01-08T23:53:39.672Z,97039.28
2023-01-08T23:56:07.429Z,97033.59
2023-01-08T23:58:34.449Z,97036.41
